createdAt,value
2022-10-29T00:00:02.984Z,12.52
2022-10-29T00:02:40.168Z,12.15
2022-10-29T00:05:09.565Z,12.36
2022-10-29T00:07:39.450Z,12.28
2022-10-29T00:10:09.236Z,12.54
2022-10-29T00:12:37.771Z,12.39
2022-10-29T00:15:09.661Z,12.26
2022-10-29T00:17:38.143Z,12.42
2022-10-29T00:22:43.297Z,12.29
2022-10-29T00:25:18.779Z,12.19
2022-10-29T00:27:47.301Z,12.10
2022-10-29T00:30:15.943Z,12.52
2022-10-29T00:32:46.397Z,12.29
2022-10-29T00:35:15.067Z,12.45
2022-10-29T00:37:44.913Z,12.44
2022-10-29T00:40:14.263Z,12.44
2022-10-29T00:42:42.691Z,12.68
2022-10-29T00:45:20.502Z,12.28
2022-10-29T00:47:53.822Z,12.76
2022-10-29T00:50:24.999Z,12.72
2022-10-29T00:52:55.797Z,12.30
2022-10-29T00:55:24.420Z,12.39
2022-10-29T00:57:56.272Z,12.29
2022-10-29T01:00:25.059Z,12.38
2022-10-29T01:02:53.858Z,12.77
2022-10-29T01:05:26.895Z,12.37
2022-10-29T01:07:56.886Z,12.26
2022-10-29T01:10:33.363Z,12.41
2022-10-29T01:13:25.128Z,12.42
2022-10-29T01:16:03.667Z,12.50
2022-10-29T01:18:37.607Z,12.72
2022-10-29T01:21:43.719Z,12.51
2022-10-29T01:24:45.880Z,12.47
2022-10-29T01:27:45.097Z,12.26
2022-10-29T01:30:21.283Z,12.08
2022-10-29T01:33:01.341Z,12.28
2022-10-29T01:40:07.625Z,12.33
2022-10-29T01:42:40.012Z,12.38
2022-10-29T01:45:15.001Z,11.96
2022-10-29T01:47:48.809Z,12.09
2022-10-29T01:50:23.311Z,11.91
2022-10-29T01:52:53.514Z,11.89
2022-10-29T01:55:23.758Z,11.54
2022-10-29T01:57:52.169Z,11.76
2022-10-29T02:00:21.676Z,11.93
2022-10-29T02:03:01.990Z,11.67
2022-10-29T02:05:36.707Z,11.88
2022-10-29T02:08:15.392Z,11.77
2022-10-29T02:10:49.644Z,11.74
2022-10-29T02:13:24.089Z,11.81
2022-10-29T02:15:56.730Z,11.62
2022-10-29T02:18:25.704Z,11.63
2022-10-29T02:20:55.474Z,11.73
2022-10-29T02:23:23.907Z,11.99
2022-10-29T02:25:52.416Z,12.05
2022-10-29T02:30:54.235Z,12.26
2022-10-29T02:33:22.845Z,11.95
2022-10-29T02:35:51.381Z,11.99
2022-10-29T02:38:21.189Z,12.07
2022-10-29T02:40:49.872Z,12.05
2022-10-29T02:45:51.861Z,12.54
2022-10-29T02:48:20.246Z,12.80
2022-10-29T02:50:48.649Z,12.86
2022-10-29T02:53:17.074Z,12.60
2022-10-29T02:55:46.843Z,12.50
2022-10-29T02:58:15.421Z,12.41
2022-10-29T03:00:43.846Z,12.33
2022-10-29T03:03:12.302Z,12.23
2022-10-29T03:05:44.010Z,12.12
2022-10-29T03:08:13.764Z,12.18
2022-10-29T03:10:42.217Z,12.64
2022-10-29T03:13:12.297Z,12.67
2022-10-29T03:15:40.811Z,12.67
2022-10-29T03:18:09.802Z,12.59
2022-10-29T03:20:38.199Z,12.60
2022-10-29T03:23:09.182Z,12.38
2022-10-29T03:25:37.728Z,11.90
2022-10-29T03:28:06.393Z,12.45
2022-10-29T03:30:36.223Z,12.11
2022-10-29T03:33:04.811Z,12.05
2022-10-29T03:35:33.218Z,11.43
2022-10-29T03:38:01.710Z,11.39
2022-10-29T03:40:30.234Z,11.62
2022-10-29T03:42:58.800Z,11.68
2022-10-29T03:45:27.061Z,11.96
2022-10-29T03:47:57.688Z,12.17
2022-10-29T03:50:26.462Z,12.00
2022-10-29T03:52:54.821Z,12.07
2022-10-29T03:55:23.230Z,12.22
2022-10-29T03:57:51.578Z,12.01
2022-10-29T04:00:20.162Z,12.29
2022-10-29T04:02:48.674Z,12.56
2022-10-29T04:05:18.588Z,12.54
2022-10-29T04:07:47.074Z,12.49
2022-10-29T04:10:15.522Z,12.48
2022-10-29T04:12:47.097Z,12.17
2022-10-29T04:15:15.760Z,11.94
2022-10-29T04:17:44.187Z,11.80
2022-10-29T04:20:27.882Z,12.02
2022-10-29T04:28:50.228Z,12.66
2022-10-29T04:31:19.524Z,12.57
2022-10-29T04:33:47.991Z,12.65
2022-10-29T04:36:16.455Z,12.45
2022-10-29T04:38:46.292Z,12.15
2022-10-29T04:41:14.828Z,12.25
2022-10-29T04:43:43.244Z,12.04
2022-10-29T04:46:12.317Z,12.05
2022-10-29T04:48:40.746Z,12.17
2022-10-29T04:51:09.229Z,11.98
2022-10-29T04:53:37.703Z,11.84
2022-10-29T04:56:08.401Z,12.07
2022-10-29T04:58:36.896Z,11.79
2022-10-29T05:01:06.275Z,11.58
2022-10-29T05:03:37.137Z,11.71
2022-10-29T05:06:06.721Z,11.55
2022-10-29T05:08:35.491Z,11.37
2022-10-29T05:11:04.887Z,11.23
2022-10-29T05:13:35.349Z,11.19
2022-10-29T05:16:05.872Z,11.19
2022-10-29T05:18:34.382Z,11.16
2022-10-29T05:21:02.742Z,11.23
2022-10-29T05:23:31.171Z,11.17
2022-10-29T05:25:59.551Z,11.14
2022-10-29T05:28:30.811Z,11.22
2022-10-29T05:31:02.722Z,11.27
2022-10-29T05:33:31.260Z,11.50
2022-10-29T05:36:01.091Z,11.69
2022-10-29T05:38:29.641Z,12.01
2022-10-29T05:41:04.363Z,11.85
2022-10-29T05:43:32.845Z,11.81
2022-10-29T05:46:03.984Z,11.58
2022-10-29T05:48:32.517Z,11.77
2022-10-29T05:51:00.952Z,11.65
2022-10-29T05:53:29.459Z,11.98
2022-10-29T05:56:00.280Z,11.90
2022-10-29T05:58:28.775Z,11.79
2022-10-29T06:00:57.158Z,11.87
2022-10-29T06:03:27.030Z,12.22
2022-10-29T06:05:55.555Z,11.97
2022-10-29T06:08:23.975Z,12.21
2022-10-29T06:10:52.410Z,12.55
2022-10-29T06:13:23.209Z,12.56
2022-10-29T06:15:52.285Z,12.22
2022-10-29T06:18:20.725Z,12.22
2022-10-29T06:20:50.599Z,12.38
2022-10-29T06:23:19.072Z,12.56
2022-10-29T06:25:47.560Z,12.54
2022-10-29T06:28:16.555Z,12.78
2022-10-29T06:30:49.270Z,13.20
2022-10-29T06:33:20.879Z,12.59
2022-10-29T06:35:50.999Z,12.74
2022-10-29T06:38:19.591Z,12.62
2022-10-29T06:40:53.981Z,12.95
2022-10-29T06:43:22.633Z,13.04
2022-10-29T06:45:51.408Z,13.19
2022-10-29T06:48:34.818Z,13.03
2022-10-29T06:51:14.585Z,12.89
2022-10-29T06:54:00.208Z,12.74
2022-10-29T06:56:43.026Z,12.86
2022-10-29T06:59:33.700Z,13.09
2022-10-29T07:02:36.385Z,12.56
2022-10-29T07:05:09.800Z,12.68
2022-10-29T07:07:42.728Z,13.10
2022-10-29T07:10:11.502Z,13.11
2022-10-29T07:12:42.507Z,12.84
2022-10-29T07:15:12.271Z,12.61
2022-10-29T07:17:44.385Z,12.29
2022-10-29T07:20:28.995Z,12.41
2022-10-29T07:23:02.639Z,12.24
2022-10-29T07:25:34.888Z,12.39
2022-10-29T07:28:11.895Z,12.12
2022-10-29T07:30:43.093Z,12.44
2022-10-29T07:33:12.249Z,12.46
2022-10-29T07:35:40.881Z,12.67
2022-10-29T07:38:12.345Z,12.06
2022-10-29T07:40:47.399Z,12.24
2022-10-29T07:43:16.540Z,12.29
2022-10-29T07:45:47.187Z,12.59
2022-10-29T07:48:17.076Z,12.74
2022-10-29T07:50:46.499Z,12.40
2022-10-29T07:53:20.797Z,12.58
2022-10-29T07:55:54.751Z,12.29
2022-10-29T07:58:24.540Z,12.35
2022-10-29T08:00:54.102Z,12.40
2022-10-29T08:03:24.185Z,13.03
2022-10-29T08:05:57.341Z,13.04
2022-10-29T08:08:28.498Z,12.79
2022-10-29T08:11:01.564Z,13.23
2022-10-29T08:13:33.206Z,13.59
2022-10-29T08:16:01.955Z,13.80
2022-10-29T08:18:30.457Z,13.68
2022-10-29T08:21:00.572Z,13.60
2022-10-29T08:23:30.682Z,13.72
2022-10-29T08:25:59.440Z,14.41
2022-10-29T08:28:30.422Z,14.05
2022-10-29T08:31:02.412Z,13.91
2022-10-29T08:33:33.027Z,13.95
2022-10-29T08:36:01.701Z,14.23
2022-10-29T08:38:32.127Z,14.15
2022-10-29T08:41:36.134Z,13.55
2022-10-29T08:44:32.942Z,14.31
2022-10-29T08:47:10.611Z,14.08
2022-10-29T08:49:45.405Z,13.97
2022-10-29T08:52:20.328Z,13.46
2022-10-29T08:54:58.473Z,13.63
2022-10-29T08:57:28.165Z,12.70
2022-10-29T09:00:05.823Z,13.32
2022-10-29T09:02:34.781Z,13.46
2022-10-29T09:05:04.229Z,13.57
2022-10-29T09:08:08.647Z,13.70
2022-10-29T09:10:45.204Z,13.40
2022-10-29T09:13:30.842Z,13.29
2022-10-29T09:16:26.873Z,13.02
2022-10-29T09:19:13.339Z,13.07
2022-10-29T09:21:51.918Z,12.64
2022-10-29T09:24:30.765Z,12.41
2022-10-29T09:27:06.635Z,12.27
2022-10-29T09:29:53.684Z,12.85
2022-10-29T09:32:31.207Z,11.87
2022-10-29T09:35:05.609Z,12.15
2022-10-29T09:37:45.475Z,12.64
2022-10-29T09:40:27.035Z,12.59
2022-10-29T09:43:00.049Z,12.57
2022-10-29T09:45:42.079Z,12.54
2022-10-29T09:48:18.579Z,12.55
2022-10-29T09:51:08.745Z,12.59
2022-10-29T09:53:37.551Z,12.91
2022-10-29T09:56:08.275Z,12.81
2022-10-29T09:58:44.845Z,13.09
2022-10-29T10:01:14.297Z,12.88
2022-10-29T10:03:48.913Z,12.48
2022-10-29T10:06:21.273Z,12.89
2022-10-29T10:09:14.529Z,12.66
2022-10-29T10:11:50.830Z,12.66
2022-10-29T10:14:33.314Z,12.85
2022-10-29T10:17:03.002Z,12.71
2022-10-29T10:19:34.178Z,12.59
2022-10-29T10:22:05.445Z,12.68
2022-10-29T10:24:35.476Z,12.59
2022-10-29T10:27:30.732Z,12.40
2022-10-29T10:30:18.203Z,12.74
2022-10-29T10:32:57.397Z,12.81
2022-10-29T10:35:32.192Z,12.17
2022-10-29T10:38:09.838Z,12.26
2022-10-29T10:40:38.916Z,12.28
2022-10-29T10:43:09.129Z,12.50
2022-10-29T10:45:43.143Z,12.27
2022-10-29T10:48:16.118Z,13.22
2022-10-29T10:50:46.886Z,13.13
2022-10-29T10:53:21.165Z,12.40
2022-10-29T10:55:58.161Z,12.68
2022-10-29T10:58:32.388Z,12.46
2022-10-29T11:01:08.052Z,12.74
2022-10-29T11:03:42.553Z,12.84
2022-10-29T11:06:26.362Z,12.17
2022-10-29T11:08:59.636Z,12.55
2022-10-29T11:11:31.967Z,12.34
2022-10-29T11:14:14.299Z,12.69
2022-10-29T11:16:55.087Z,12.33
2022-10-29T11:19:40.328Z,12.66
2022-10-29T11:22:22.196Z,12.54
2022-10-29T11:25:03.426Z,12.72
2022-10-29T11:27:42.906Z,12.38
2022-10-29T11:30:20.790Z,13.18
2022-10-29T11:33:17.936Z,12.20
2022-10-29T11:36:00.465Z,12.87
2022-10-29T11:38:38.920Z,13.22
2022-10-29T11:41:16.737Z,12.88
2022-10-29T11:43:45.565Z,12.94
2022-10-29T11:46:27.786Z,12.59
2022-10-29T11:49:24.234Z,12.56
2022-10-29T11:52:08.085Z,12.27
2022-10-29T11:55:49.582Z,12.56
2022-10-29T11:58:47.954Z,12.48
2022-10-29T12:01:27.066Z,12.63
2022-10-29T12:04:19.618Z,12.42
2022-10-29T12:07:09.582Z,12.59
2022-10-29T12:10:06.201Z,12.88
2022-10-29T12:12:46.597Z,12.93
2022-10-29T12:15:31.066Z,12.95
2022-10-29T12:18:21.989Z,12.58
2022-10-29T12:21:12.384Z,12.50
2022-10-29T12:24:26.519Z,13.11
2022-10-29T12:27:21.725Z,13.05
2022-10-29T12:30:22.716Z,12.92
2022-10-29T12:33:25.067Z,13.29
2022-10-29T12:36:06.607Z,12.84
2022-10-29T12:38:42.383Z,12.86
2022-10-29T12:41:23.398Z,12.81
2022-10-29T12:43:54.988Z,13.07
2022-10-29T12:46:37.652Z,12.84
2022-10-29T12:49:40.480Z,12.80
2022-10-29T12:55:24.842Z,12.89
2022-10-29T12:58:25.882Z,12.88
2022-10-29T13:00:57.264Z,12.88
2022-10-29T13:04:00.507Z,13.21
2022-10-29T13:06:59.449Z,12.97
2022-10-29T13:10:10.935Z,12.98
2022-10-29T13:13:16.834Z,12.93
2022-10-29T13:15:59.244Z,12.54
2022-10-29T13:22:20.371Z,13.24
2022-10-29T13:25:27.587Z,13.39
2022-10-29T13:28:34.398Z,13.19
2022-10-29T13:32:02.058Z,13.15
2022-10-29T13:35:05.625Z,13.81
2022-10-29T13:38:22.359Z,13.33
2022-10-29T13:41:19.906Z,13.13
2022-10-29T13:44:11.894Z,13.07
2022-10-29T13:47:10.840Z,12.95
2022-10-29T13:53:53.199Z,12.86
2022-10-29T13:56:36.212Z,12.58
2022-10-29T13:59:42.921Z,12.86
2022-10-29T14:06:48.124Z,13.35
2022-10-29T14:09:35.102Z,12.99
2022-10-29T14:12:12.488Z,12.83
2022-10-29T14:14:54.390Z,12.79
2022-10-29T14:17:23.124Z,12.59
2022-10-29T14:24:18.191Z,13.03
2022-10-29T14:26:48.348Z,12.94
2022-10-29T14:29:27.606Z,12.52
2022-10-29T14:32:15.388Z,13.02
2022-10-29T14:34:45.444Z,13.24
2022-10-29T14:37:19.136Z,12.83
2022-10-29T14:39:57.900Z,12.50
2022-10-29T14:42:36.794Z,12.79
2022-10-29T14:45:29.196Z,12.72
2022-10-29T14:48:16.723Z,12.23
2022-10-29T14:50:50.922Z,12.61
2022-10-29T14:53:31.941Z,12.98
2022-10-29T14:56:07.336Z,12.42
2022-10-29T14:58:45.609Z,12.88
2022-10-29T15:01:20.890Z,13.03
2022-10-29T15:03:59.324Z,12.67
2022-10-29T15:06:35.687Z,12.61
2022-10-29T15:09:20.671Z,13.00
2022-10-29T15:12:30.409Z,12.47
2022-10-29T15:15:29.492Z,12.76
2022-10-29T15:18:55.509Z,12.76
2022-10-29T15:22:01.046Z,12.60
2022-10-29T15:24:45.902Z,12.82
2022-10-29T15:27:25.441Z,12.54
2022-10-29T15:29:55.677Z,12.54
2022-10-29T15:32:32.586Z,12.67
2022-10-29T15:35:06.292Z,12.18
2022-10-29T15:37:48.334Z,12.68
2022-10-29T15:40:20.742Z,12.47
2022-10-29T15:43:20.752Z,12.59
2022-10-29T15:45:59.208Z,12.92
2022-10-29T15:48:37.955Z,12.82
2022-10-29T15:51:06.976Z,13.11
2022-10-29T15:53:36.991Z,12.96
2022-10-29T15:56:06.336Z,12.71
2022-10-29T15:58:35.098Z,12.88
2022-10-29T16:01:03.892Z,13.01
2022-10-29T16:03:45.599Z,12.89
2022-10-29T16:06:22.748Z,12.83
2022-10-29T16:08:56.052Z,12.54
2022-10-29T16:11:28.917Z,12.92
2022-10-29T16:13:57.983Z,12.61
2022-10-29T16:16:27.105Z,12.62
2022-10-29T16:19:01.553Z,12.28
2022-10-29T16:21:34.855Z,12.65
2022-10-29T16:24:05.749Z,12.83
2022-10-29T16:27:01.339Z,12.56
2022-10-29T16:29:32.668Z,12.38
2022-10-29T16:32:23.970Z,12.52
2022-10-29T16:35:00.786Z,12.27
2022-10-29T16:37:31.358Z,12.78
2022-10-29T16:40:00.265Z,12.84
2022-10-29T16:42:34.349Z,13.12
2022-10-29T16:45:07.323Z,12.85
2022-10-29T16:47:46.563Z,12.54
2022-10-29T16:50:21.066Z,12.58
2022-10-29T16:52:50.303Z,12.52
2022-10-29T16:55:22.155Z,12.64
2022-10-29T16:57:54.334Z,12.73
2022-10-29T17:00:38.299Z,12.23
2022-10-29T17:04:00.073Z,13.07
2022-10-29T17:06:30.537Z,12.65
2022-10-29T17:09:01.338Z,12.62
2022-10-29T17:11:33.261Z,12.81
2022-10-29T17:14:02.459Z,12.45
2022-10-29T17:16:31.722Z,12.91
2022-10-29T17:19:00.450Z,12.91
2022-10-29T17:21:35.423Z,12.93
2022-10-29T17:24:08.070Z,12.98
2022-10-29T17:26:37.499Z,12.88
2022-10-29T17:29:06.586Z,12.83
2022-10-29T17:31:38.568Z,12.78
2022-10-29T17:34:11.031Z,12.80
2022-10-29T17:36:44.708Z,12.88
2022-10-29T17:39:14.151Z,12.61
2022-10-29T17:41:49.579Z,12.73
2022-10-29T17:44:39.741Z,12.84
2022-10-29T18:00:11.852Z,12.89
2022-10-29T18:04:07.417Z,12.84
2022-10-29T18:15:59.820Z,13.31
2022-10-29T18:19:11.613Z,13.26
